Curtisville, Indiana
Current Conditions -  °F | °C
As of 7:35 PM on Friday 24 Oct 2014 (Local Time) from KMZZ Reporting Station
Scattered Clouds Scattered Clouds  
Wind Chill: 54°   Ceiling: Unl
Heat Index: 54°   Visibility: 10mi
Dew Point: 48°   Wind: 6mph
Humidity: 79%   Direction: 210°SSW
Pressure: 30.02"   Gusts: NA
Location:  40.3067°N, 85.834°W
Report Text: KMZZ 242335Z AUTO 21005KT 10SM SCT033 SCT040 12/09 A3002 RMK AO2 T01230088
Loading
Personal Weather Stations






























Interactive Weather Map
Tropical Storm Tracking
New forecast layout! Learn more

10-Day Weather Forecast

Advertisements
Track Severe Weather on mobile